Sect Cercadillo, Puerto Rico
Current Conditions -  °F | °C
As of 8:50 AM on Thursday 23 Oct 2014 (Local Time) from TJPS Reporting Station
Few Clouds Few Clouds  
Wind Chill: 88°   Ceiling: Unl
Heat Index: 96°   Visibility: 10mi
Dew Point: 73°   Wind: 7mph
Humidity: 62%   Direction: 120°ESE
Pressure: 29.9"   Gusts: NA
Location:  18.2676°N, 66.7005°W
Report Text: TJPS 231250Z 12006KT 10SM FEW030 31/23 A2990
Loading
Personal Weather Stations






























Interactive Weather Map
Tropical Storm Tracking
New forecast layout! Learn more

10-Day Weather Forecast

Advertisements
Track Severe Weather on mobile